Time;durP1;ratioP1;P1;durP2;ratioP2;P2;SDS_P1;SDS_P2;PMS_P1;PMS_P2;Temp;Humidity;BMP_temperature;BMP_pressure;BME280_temperature;BME280_humidity;BME280_pressure;Samples;Min_cycle;Max_cycle;Signal;HPM_P1;HPM_P2
2022/03/03 00:00:49;;;;;;;6.28;4.78;;;;;;;17.92;42.23;101954.00;5052843;28;20021;-72
2022/03/03 00:03:14;;;;;;;7.10;4.60;;;;;;;17.91;42.83;101954.09;5052888;28;20020;-71
2022/03/03 00:05:39;;;;;;;5.88;4.45;;;;;;;17.87;42.42;101945.50;5051620;28;20033;-71
2022/03/03 00:08:04;;;;;;;6.68;4.75;;;;;;;17.87;42.26;101944.66;5052613;28;20111;-72
2022/03/03 00:10:30;;;;;;;6.55;4.80;;;;;;;17.85;42.55;101935.97;5032726;28;20033;-71
2022/03/03 00:12:55;;;;;;;5.70;4.07;;;;;;;17.82;42.53;101936.22;5032150;28;20480;-72
2022/03/03 00:15:20;;;;;;;6.47;4.70;;;;;;;17.79;42.67;101939.88;5032685;28;20025;-71
2022/03/03 00:17:46;;;;;;;7.95;5.28;;;;;;;17.77;42.33;101937.34;5032098;28;20029;-72
2022/03/03 00:20:11;;;;;;;6.68;4.72;;;;;;;17.76;42.32;101933.00;5033053;28;20026;-72
2022/03/03 00:22:36;;;;;;;6.63;5.03;;;;;;;17.74;42.59;101934.03;5032805;28;20420;-72
2022/03/03 00:25:02;;;;;;;8.43;5.00;;;;;;;17.72;42.48;101933.28;5031914;28;20461;-71
2022/03/03 00:27:27;;;;;;;6.30;4.88;;;;;;;17.70;42.37;101940.44;5032483;28;20029;-71
2022/03/03 00:29:53;;;;;;;6.40;4.43;;;;;;;17.68;42.72;101929.16;5032754;28;20048;-72
2022/03/03 00:32:18;;;;;;;7.80;5.00;;;;;;;17.65;42.46;101932.81;5031914;28;20025;-71
2022/03/03 00:34:43;;;;;;;6.03;4.60;;;;;;;17.62;42.62;101934.81;5032162;28;20262;-71
2022/03/03 00:37:09;;;;;;;6.97;4.70;;;;;;;17.61;42.82;101936.59;5032684;28;20022;-71
2022/03/03 00:39:34;;;;;;;6.93;4.65;;;;;;;17.59;42.92;101936.69;5031624;28;20275;-72
2022/03/03 00:41:59;;;;;;;6.72;4.80;;;;;;;17.57;42.65;101938.56;5032402;28;20067;-71
2022/03/03 00:44:24;;;;;;;6.82;4.47;;;;;;;17.54;42.46;101930.84;5032270;28;20033;-71
2022/03/03 00:46:50;;;;;;;6.57;4.78;;;;;;;17.54;42.83;101935.28;5031755;28;20027;-71
2022/03/03 00:49:15;;;;;;;6.85;4.75;;;;;;;17.50;42.32;101934.63;5032362;28;20033;-71
2022/03/03 00:51:40;;;;;;;7.50;4.38;;;;;;;17.48;42.61;101933.88;5032292;28;20476;-72
2022/03/03 00:54:05;;;;;;;6.47;4.50;;;;;;;17.47;42.36;101932.16;5031765;28;20041;-72
2022/03/03 00:56:31;;;;;;;7.17;4.50;;;;;;;17.45;42.37;101925.28;5032190;28;20100;-72
2022/03/03 00:58:57;;;;;;;6.18;4.25;;;;;;;17.43;42.67;101928.00;5032522;28;20270;-71
2022/03/03 01:01:23;;;;;;;8.68;5.13;;;;;;;17.40;42.38;101923.78;5031240;28;20420;-72
2022/03/03 01:03:48;;;;;;;6.68;4.35;;;;;;;17.38;42.57;101916.91;5032282;28;20029;-71
2022/03/03 01:06:14;;;;;;;6.53;4.45;;;;;;;17.38;42.44;101916.91;5032210;28;20120;-71
2022/03/03 01:08:39;;;;;;;6.70;4.80;;;;;;;17.36;42.48;101919.63;5035856;28;20049;-71
2022/03/03 01:11:06;;;;;;;6.60;4.68;;;;;;;17.34;42.62;101916.25;5052361;28;20029;-71
2022/03/03 01:13:31;;;;;;;7.40;5.00;;;;;;;17.33;42.45;101921.63;5052105;28;20021;-72
2022/03/03 01:15:57;;;;;;;9.25;5.03;;;;;;;17.30;42.45;101925.28;5051356;28;20106;-71
2022/03/03 01:18:22;;;;;;;7.00;4.13;;;;;;;17.31;42.72;101923.50;5055370;28;20025;-71
2022/03/03 01:20:54;;;;;;;6.45;4.63;;;;;;;17.29;42.63;101920.97;5055683;28;20021;-72
2022/03/03 01:23:19;;;;;;;8.13;4.95;;;;;;;17.27;42.12;101920.19;5055791;28;20384;-71
2022/03/03 01:25:44;;;;;;;6.72;4.18;;;;;;;17.27;42.70;101919.34;5055712;28;20029;-71
2022/03/03 01:28:09;;;;;;;7.70;5.10;;;;;;;17.25;42.38;101915.97;5055007;28;20158;-71
2022/03/03 01:30:35;;;;;;;6.37;4.60;;;;;;;17.25;42.28;101916.81;5054891;28;20294;-71
2022/03/03 01:33:00;;;;;;;6.80;4.93;;;;;;;17.24;42.49;101917.75;5055570;28;20277;-71
2022/03/03 01:35:25;;;;;;;6.53;4.55;;;;;;;17.20;42.57;101914.47;5054273;28;20028;-72
2022/03/03 01:37:51;;;;;;;7.60;4.47;;;;;;;17.20;42.50;101908.34;5055508;28;20051;-72
2022/03/03 01:40:16;;;;;;;7.50;4.97;;;;;;;17.19;42.78;101898.75;5055561;28;20461;-72
2022/03/03 01:42:44;;;;;;;7.25;4.90;;;;;;;17.18;42.34;101899.66;5054337;28;20028;-72
2022/03/03 01:45:09;;;;;;;7.53;4.95;;;;;;;17.18;43.49;101882.09;5055303;28;20021;-72
2022/03/03 01:47:35;;;;;;;7.82;4.60;;;;;;;17.22;43.13;101883.59;5055024;28;20078;-72
2022/03/03 01:50:00;;;;;;;6.80;4.90;;;;;;;17.27;43.00;101882.47;5054396;28;20492;-72
2022/03/03 01:52:26;;;;;;;7.78;4.93;;;;;;;17.31;42.68;101884.81;5054997;28;20028;-72
2022/03/03 01:54:51;;;;;;;7.60;5.05;;;;;;;17.34;42.72;101883.78;5055313;28;20096;-72
2022/03/03 01:57:19;;;;;;;7.65;4.63;;;;;;;17.38;42.93;101886.13;5054679;28;20047;-72
2022/03/03 01:59:44;;;;;;;6.88;4.93;;;;;;;17.40;42.71;101886.03;5055356;28;20025;-72
2022/03/03 02:02:10;;;;;;;6.35;4.47;;;;;;;17.41;42.42;101877.19;5055386;28;20460;-72
2022/03/03 02:04:38;;;;;;;7.22;4.38;;;;;;;17.44;42.61;101884.09;5054034;28;20492;-72
2022/03/03 02:07:03;;;;;;;7.07;4.57;;;;;;;17.44;42.82;101876.19;5054985;28;20143;-72
2022/03/03 02:09:29;;;;;;;7.57;5.00;;;;;;;17.45;42.51;101872.56;5054025;28;20128;-72
2022/03/03 02:11:54;;;;;;;8.45;5.22;;;;;;;17.46;42.79;101864.56;5053993;28;20052;-73
2022/03/03 02:14:19;;;;;;;6.57;4.70;;;;;;;17.45;43.23;101862.03;5054442;28;20029;-71
2022/03/03 02:16:45;;;;;;;6.53;4.40;;;;;;;17.43;42.92;101859.50;5054842;28;20029;-70
2022/03/03 02:19:20;;;;;;;7.60;4.97;;;;;;;17.43;43.48;101864.78;5053767;28;20040;-71
2022/03/03 02:21:51;;;;;;;8.32;5.00;;;;;;;17.44;43.11;101855.09;5055024;28;20274;-71
2022/03/03 02:24:17;;;;;;;6.63;4.63;;;;;;;17.43;43.39;101859.50;5053820;28;20025;-71
2022/03/03 02:26:43;;;;;;;6.40;4.50;;;;;;;17.41;43.22;101849.06;5054108;28;20448;-71
2022/03/03 02:29:09;;;;;;;7.50;5.07;;;;;;;17.41;43.02;101848.22;5054207;28;20061;-72
2022/03/03 02:31:34;;;;;;;6.95;4.93;;;;;;;17.40;42.96;101851.78;5053276;28;20171;-72
2022/03/03 02:34:00;;;;;;;7.32;4.30;;;;;;;17.39;42.55;101850.94;5054922;28;20141;-72
2022/03/03 02:36:27;;;;;;;7.28;4.95;;;;;;;17.40;42.66;101854.41;5053947;28;20079;-72
2022/03/03 02:38:54;;;;;;;7.05;4.85;;;;;;;17.36;42.60;101847.66;5053582;28;20024;-72
2022/03/03 02:41:20;;;;;;;6.78;4.80;;;;;;;17.38;42.20;101853.66;5053939;28;20021;-71
2022/03/03 02:43:48;;;;;;;6.68;5.10;;;;;;;17.39;41.94;101848.31;5054073;28;20024;-72
2022/03/03 02:46:14;;;;;;;6.55;5.03;;;;;;;17.39;41.65;101850.94;5053611;28;20056;-72
2022/03/03 02:48:40;;;;;;;6.35;4.57;;;;;;;17.41;41.64;101848.22;5053953;28;20060;-72
2022/03/03 02:51:06;;;;;;;6.30;4.57;;;;;;;17.42;41.90;101842.00;5054101;28;20035;-72
2022/03/03 02:53:31;;;;;;;8.10;4.88;;;;;;;17.43;41.76;101848.97;5052937;28;20059;-71
2022/03/03 02:55:57;;;;;;;7.15;5.00;;;;;;;17.43;41.70;101843.69;5053869;28;20053;-72
2022/03/03 02:58:25;;;;;;;6.55;4.45;;;;;;;17.45;42.04;101843.59;5053608;28;20063;-72
2022/03/03 03:00:51;;;;;;;7.25;5.07;;;;;;;17.45;41.85;101839.19;5053106;28;20025;-72
2022/03/03 03:03:19;;;;;;;6.50;4.93;;;;;;;17.44;41.69;101842.75;5053989;28;20480;-72
2022/03/03 03:05:46;;;;;;;6.50;4.63;;;;;;;17.44;42.06;101845.38;5053581;28;20471;-72
2022/03/03 03:08:11;;;;;;;5.78;4.22;;;;;;;17.41;41.73;101835.88;5053007;28;20029;-72
2022/03/03 03:10:37;;;;;;;6.68;4.45;;;;;;;17.43;41.88;101842.84;5053059;28;20052;-72
2022/03/03 03:13:03;;;;;;;8.18;5.30;;;;;;;17.40;42.43;101844.75;5053446;28;20025;-72
2022/03/03 03:15:29;;;;;;;7.10;4.13;;;;;;;17.41;42.29;101843.78;5052441;28;20029;-72
2022/03/03 03:17:54;;;;;;;8.00;4.93;;;;;;;17.40;42.64;101841.25;5053626;28;20068;-72
2022/03/03 03:20:20;;;;;;;7.20;4.22;;;;;;;17.39;42.27;101840.41;5053116;28;20040;-71
2022/03/03 03:22:45;;;;;;;5.97;4.57;;;;;;;17.39;41.91;101842.19;5052582;28;20032;-71
2022/03/03 03:25:13;;;;;;;7.65;4.75;;;;;;;17.39;41.16;101839.56;5053410;28;20036;-71
2022/03/03 03:27:40;;;;;;;8.02;4.70;;;;;;;17.40;41.01;101828.94;5052148;28;20057;-72
2022/03/03 03:30:11;;;;;;;7.53;5.00;;;;;;;17.41;41.23;101832.41;5053327;28;20025;-72
2022/03/03 03:32:39;;;;;;;8.68;5.28;;;;;;;17.42;41.14;101826.19;5053110;28;20021;-72
2022/03/03 03:35:06;;;;;;;7.78;5.13;;;;;;;17.43;41.35;101819.97;5052278;28;20384;-72
2022/03/03 03:37:31;;;;;;;6.97;4.55;;;;;;;17.44;41.16;101818.19;5053027;28;20099;-72
2022/03/03 03:39:56;;;;;;;7.05;4.82;;;;;;;17.44;40.90;101824.31;5052667;28;20108;-72
2022/03/03 03:42:22;;;;;;;6.60;4.63;;;;;;;17.44;40.73;101818.19;5051888;28;20138;-72
2022/03/03 03:44:47;;;;;;;7.93;5.18;;;;;;;17.44;41.14;101823.47;5053173;28;20021;-72
2022/03/03 03:47:13;;;;;;;7.55;5.00;;;;;;;17.44;41.27;101821.66;5053058;28;20469;-72
2022/03/03 03:49:39;;;;;;;7.47;4.80;;;;;;;17.43;41.05;101819.97;5051812;28;20155;-72
2022/03/03 03:52:05;;;;;;;7.10;4.55;;;;;;;17.44;40.72;101815.56;5053023;28;20115;-72
2022/03/03 03:54:30;;;;;;;7.05;5.18;;;;;;;17.44;40.55;101808.50;5052604;28;20100;-72
2022/03/03 03:56:55;;;;;;;7.88;4.80;;;;;;;17.45;41.04;101812.84;5052020;28;20017;-72
2022/03/03 03:59:21;;;;;;;6.07;4.40;;;;;;;17.47;40.74;101802.19;5052742;28;20029;-72
2022/03/03 04:01:46;;;;;;;7.60;5.03;;;;;;;17.48;40.64;101814.41;5052951;28;20285;-72
2022/03/03 04:04:12;;;;;;;8.35;5.10;;;;;;;17.49;41.11;101805.56;5051932;28;20071;-71
2022/03/03 04:06:38;;;;;;;6.60;4.68;;;;;;;17.49;40.83;101816.13;5052443;28;20055;-72
2022/03/03 04:09:04;;;;;;;6.78;5.10;;;;;;;17.50;40.90;101816.00;5052526;28;20043;-71
2022/03/03 04:11:30;;;;;;;7.93;5.07;;;;;;;17.49;40.74;101809.03;5051582;28;20439;-72
2022/03/03 04:13:56;;;;;;;6.68;4.95;;;;;;;17.49;40.63;101813.47;5052917;28;20515;-72
2022/03/03 04:16:22;;;;;;;7.00;4.82;;;;;;;17.48;40.44;101814.41;5052699;28;20035;-72
2022/03/03 04:18:48;;;;;;;6.57;4.72;;;;;;;17.48;40.84;101811.78;5052068;28;20404;-72
2022/03/03 04:21:13;;;;;;;8.05;4.95;;;;;;;17.47;40.62;101807.47;5052697;28;20131;-72
2022/03/03 04:23:41;;;;;;;7.73;4.73;;;;;;;17.46;40.34;101792.59;5052321;28;20540;-72
2022/03/03 04:26:06;;;;;;;7.15;4.90;;;;;;;17.46;40.40;101796.06;5051701;28;20281;-72
2022/03/03 04:28:32;;;;;;;7.25;4.43;;;;;;;17.47;40.80;101791.66;5052316;28;20021;-72
2022/03/03 04:30:57;;;;;;;6.93;4.80;;;;;;;17.47;40.50;101783.75;5051742;28;20381;-72
2022/03/03 04:33:43;;;;;;;7.95;5.05;;;;;;;17.49;40.50;101787.13;5052211;28;20368;-71
2022/03/03 04:36:08;;;;;;;6.95;5.05;;;;;;;17.50;40.60;101786.16;5044923;28;20453;-72
2022/03/03 04:38:34;;;;;;;7.93;4.45;;;;;;;17.47;40.72;101775.84;5051397;28;20116;-72
2022/03/03 04:40:59;;;;;;;7.25;4.88;;;;;;;17.49;40.46;101781.84;5052559;28;20046;-72
2022/03/03 04:43:24;;;;;;;7.22;5.05;;;;;;;17.49;40.50;101787.13;5052202;28;20112;-72
2022/03/03 04:45:50;;;;;;;7.45;4.78;;;;;;;17.49;40.78;101777.41;5051530;28;20396;-72
2022/03/03 04:48:15;;;;;;;8.10;4.90;;;;;;;17.49;40.66;101779.22;5052318;28;20028;-72
2022/03/03 04:50:40;;;;;;;7.57;4.45;;;;;;;17.47;40.67;101771.41;5051981;28;20025;-73
2022/03/03 04:53:05;;;;;;;7.95;4.72;;;;;;;17.47;40.34;101765.31;5054824;28;20071;-71
2022/03/03 04:55:31;;;;;;;7.40;5.47;;;;;;;17.48;40.43;101766.97;5055994;28;20017;-72
2022/03/03 04:57:56;;;;;;;7.40;4.97;;;;;;;17.48;40.16;101764.34;5056102;28;20273;-71
2022/03/03 05:00:21;;;;;;;7.28;5.03;;;;;;;17.48;40.23;101766.97;5054926;28;20033;-71
2022/03/03 05:02:53;;;;;;;6.83;4.90;;;;;;;17.50;40.61;101772.97;5055941;28;20068;-73
2022/03/03 05:05:18;;;;;;;8.18;5.20;;;;;;;17.48;40.18;101762.56;5055978;28;20790;-72
2022/03/03 05:07:43;;;;;;;7.90;5.53;;;;;;;17.50;40.27;101767.72;5054794;28;20024;-72
2022/03/03 05:10:09;;;;;;;6.85;5.10;;;;;;;17.49;40.55;101766.88;5055593;28;20099;-71
2022/03/03 05:12:34;;;;;;;7.68;5.20;;;;;;;17.49;40.25;101766.88;5055677;28;20037;-72
2022/03/03 05:15:00;;;;;;;7.03;5.03;;;;;;;17.51;40.32;101774.69;5055009;28;20032;-72
2022/03/03 05:17:25;;;;;;;6.97;5.10;;;;;;;17.49;40.42;101779.22;5055419;28;20772;-72
2022/03/03 05:19:50;;;;;;;6.47;4.57;;;;;;;17.48;40.29;101775.75;5055732;28;20025;-72
2022/03/03 05:22:15;;;;;;;6.80;4.93;;;;;;;17.47;40.10;101781.13;5055186;28;20017;-72
2022/03/03 05:24:42;;;;;;;8.03;4.90;;;;;;;17.47;40.03;101781.13;5055069;28;20281;-72
2022/03/03 05:27:08;;;;;;;8.07;5.00;;;;;;;17.48;39.86;101775.75;5054804;28;20320;-72
2022/03/03 05:29:34;;;;;;;7.03;5.22;;;;;;;17.48;40.39;101772.25;5055147;28;20576;-72
2022/03/03 05:31:59;;;;;;;6.15;4.70;;;;;;;17.49;40.26;101782.69;5055286;28;20491;-72
2022/03/03 05:34:28;;;;;;;6.30;4.65;;;;;;;17.49;40.22;101776.59;5054217;28;20548;-72
2022/03/03 05:36:54;;;;;;;7.05;4.82;;;;;;;17.49;40.28;101779.22;5055076;28;20028;-72
2022/03/03 05:39:21;;;;;;;7.32;5.05;;;;;;;17.49;40.48;101784.50;5055167;28;20021;-72
2022/03/03 05:41:46;;;;;;;6.68;4.60;;;;;;;17.46;40.37;101777.63;5054511;28;20021;-71
2022/03/03 05:44:15;;;;;;;6.72;4.63;;;;;;;17.48;39.90;101780.16;5055099;28;20031;-71
2022/03/03 05:46:43;;;;;;;6.50;4.72;;;;;;;17.47;40.00;101784.59;5054758;28;20522;-72
2022/03/03 05:49:10;;;;;;;7.22;4.90;;;;;;;17.47;39.80;101786.38;5054114;28;20021;-72
2022/03/03 05:51:35;;;;;;;6.28;4.88;;;;;;;17.48;39.76;101785.41;5054453;28;20025;-73
2022/03/03 05:54:02;;;;;;;7.15;5.10;;;;;;;17.49;40.04;101789.75;5055080;28;20091;-72
2022/03/03 05:56:31;;;;;;;6.63;4.90;;;;;;;17.49;39.92;101779.22;5053733;28;20020;-73
2022/03/03 05:59:01;;;;;;;8.32;4.90;;;;;;;17.49;39.85;101784.50;5054824;28;20468;-73
2022/03/03 06:01:28;;;;;;;7.50;5.05;;;;;;;17.49;39.76;101785.31;5054648;28;20025;-72
2022/03/03 06:03:58;;;;;;;7.05;4.60;;;;;;;17.50;40.03;101779.13;5053605;28;20100;-72
2022/03/03 06:06:34;;;;;;;7.35;4.68;;;;;;;17.53;39.60;101776.28;5054649;28;20049;-72
2022/03/03 06:09:26;;;;;;;6.65;4.78;;;;;;;17.57;40.56;101776.94;5054499;28;20085;-72
2022/03/03 06:12:03;;;;;;;6.95;4.70;;;;;;;17.62;40.80;101776.63;5054794;28;20035;-72
2022/03/03 06:14:38;;;;;;;6.85;4.72;;;;;;;17.64;40.66;101772.97;5054375;28;20131;-72
2022/03/03 06:17:04;;;;;;;6.75;4.70;;;;;;;17.66;40.38;101775.50;5053644;28;20354;-72
2022/03/03 06:19:30;;;;;;;6.43;4.55;;;;;;;17.70;40.59;101776.97;5054152;28;20067;-72
2022/03/03 06:21:55;;;;;;;6.97;4.70;;;;;;;17.70;40.57;101769.91;5054490;28;20357;-73
2022/03/03 06:24:20;;;;;;;7.55;4.25;;;;;;;17.72;40.54;101768.03;5053404;28;20120;-72
2022/03/03 06:26:47;;;;;;;6.72;4.95;;;;;;;17.75;39.85;101766.97;5054322;28;20021;-72
2022/03/03 06:29:13;;;;;;;7.10;4.68;;;;;;;17.77;40.03;101773.84;5054408;28;20040;-72
2022/03/03 06:31:39;;;;;;;7.53;4.63;;;;;;;17.77;39.85;101768.59;5053275;28;20029;-72
2022/03/03 06:34:04;;;;;;;6.55;4.30;;;;;;;17.79;40.08;101770.28;5054209;28;20064;-70
2022/03/03 06:36:29;;;;;;;9.07;5.10;;;;;;;17.81;40.21;101784.19;5053824;28;20029;-71
2022/03/03 06:38:54;;;;;;;9.23;5.15;;;;;;;17.82;40.22;101780.63;5053196;28;20273;-71
2022/03/03 06:41:20;;;;;;;7.83;4.90;;;;;;;17.81;40.00;101778.94;5053618;28;20477;-71
2022/03/03 06:43:48;;;;;;;6.00;4.00;;;;;;;17.85;40.64;101783.03;5054227;28;20270;-71
2022/03/03 06:46:18;;;;;;;5.45;3.80;;;;;;;17.86;42.22;101779.47;5053336;28;20277;-71
2022/03/03 06:48:43;;;;;;;7.07;4.47;;;;;;;17.88;42.26;101789.00;5053872;28;20104;-71
2022/03/03 06:51:15;;;;;;;6.82;4.60;;;;;;;17.89;42.33;101781.94;5054141;28;20112;-70
2022/03/03 06:53:43;;;;;;;6.25;4.18;;;;;;;17.92;42.24;101790.50;5052960;28;20036;-70
2022/03/03 06:56:11;;;;;;;8.63;5.45;;;;;;;17.90;39.54;101791.56;5053477;28;20055;-70
2022/03/03 06:58:37;;;;;;;7.22;4.70;;;;;;;17.88;42.35;101794.28;5052836;28;20057;-70
2022/03/03 07:01:05;;;;;;;6.78;3.85;;;;;;;17.91;42.64;101794.09;5053746;28;20100;-72
2022/03/03 07:03:31;;;;;;;6.18;3.60;;;;;;;17.95;42.50;101800.00;5053338;28;20068;-71
2022/03/03 07:05:57;;;;;;;7.05;3.85;;;;;;;17.99;42.72;101798.88;5052729;28;20036;-70
2022/03/03 07:08:22;;;;;;;7.30;3.90;;;;;;;18.03;42.82;101799.50;5052871;28;20017;-72
2022/03/03 07:10:48;;;;;;;7.60;3.70;;;;;;;18.05;43.24;101805.53;5053265;28;20039;-69
2022/03/03 07:13:15;;;;;;;7.82;4.10;;;;;;;18.05;40.94;101814.25;5052826;28;20062;-72
2022/03/03 07:15:49;;;;;;;8.35;5.10;;;;;;;18.02;41.07;101825.00;5052351;28;20380;-72
2022/03/03 07:18:18;;;;;;;7.97;5.55;;;;;;;18.02;40.58;101811.00;5053543;28;20025;-74
2022/03/03 07:21:05;;;;;;;6.10;4.35;;;;;;;18.06;42.20;101812.50;5052241;28;20567;-75
2022/03/03 07:23:37;;;;;;;6.47;4.00;;;;;;;18.09;42.52;101804.38;5052825;28;20447;-74
2022/03/03 07:26:05;;;;;;;6.03;4.05;;;;;;;18.13;42.88;101805.84;5053287;28;20108;-75
2022/03/03 07:28:31;;;;;;;6.45;3.80;;;;;;;18.17;43.30;101807.34;5052192;28;20021;-71
2022/03/03 07:31:00;;;;;;;5.38;3.45;;;;;;;18.18;43.07;101806.38;5053040;28;20032;-76
2022/03/03 07:34:01;;;;;;;7.32;3.83;;;;;;;18.23;42.96;101816.63;5052822;28;20021;-76
2022/03/03 07:36:29;;;;;;;6.35;3.80;;;;;;;18.24;43.13;101813.06;5053003;28;20028;-64
2022/03/03 07:39:01;;;;;;;7.38;4.03;;;;;;;18.27;42.86;101812.84;5053081;28;20025;-72
2022/03/03 07:41:27;;;;;;;7.10;3.72;;;;;;;18.31;42.45;101815.19;5051979;28;20472;-71
2022/03/03 07:43:54;;;;;;;6.40;3.67;;;;;;;18.34;42.45;101813.28;5053004;28;20385;-70
2022/03/03 07:46:19;;;;;;;6.53;3.83;;;;;;;18.37;42.60;101813.09;5052980;28;20025;-72
2022/03/03 07:48:46;;;;;;;6.70;4.07;;;;;;;18.39;42.59;101819.09;5052325;28;20021;-71
2022/03/03 07:51:12;;;;;;;6.18;3.85;;;;;;;18.41;42.72;101807.50;5053401;28;20032;-72
2022/03/03 07:53:37;;;;;;;7.85;4.25;;;;;;;18.44;42.94;101809.94;5052927;28;20056;-74
2022/03/03 07:56:04;;;;;;;8.55;3.92;;;;;;;18.47;43.58;101811.53;5052188;28;20071;-72
2022/03/03 07:58:33;;;;;;;11.15;4.32;;;;;;;18.51;44.11;101806.88;5052510;28;20028;-70
2022/03/03 08:01:05;;;;;;;7.95;4.00;;;;;;;18.57;44.30;101817.03;5052849;28;20031;-68
2022/03/03 08:03:31;;;;;;;6.57;3.90;;;;;;;18.60;44.01;101814.19;5052029;28;20025;-69
2022/03/03 08:05:58;;;;;;;7.22;3.97;;;;;;;18.64;44.16;101813.88;5052886;28;20029;-71
2022/03/03 08:08:30;;;;;;;6.95;3.72;;;;;;;18.66;44.46;101813.78;5052441;28;20162;-68
2022/03/03 08:10:58;;;;;;;6.70;3.80;;;;;;;18.71;44.19;101824.84;5051859;28;20033;-69
2022/03/03 08:13:26;;;;;;;9.88;4.22;;;;;;;18.70;43.97;101815.25;5052220;28;20044;-65
2022/03/03 08:15:52;;;;;;;8.63;4.15;;;;;;;18.69;44.35;101821.47;5052290;28;20116;-69
2022/03/03 08:18:17;;;;;;;8.55;4.00;;;;;;;18.68;44.02;101815.34;5052297;28;20103;-72
2022/03/03 08:20:42;;;;;;;8.80;4.18;;;;;;;18.69;43.95;101816.19;5052114;28;20568;-71
2022/03/03 08:23:08;;;;;;;9.23;4.30;;;;;;;18.70;44.14;101809.97;5051522;28;20078;-75
2022/03/03 08:25:35;;;;;;;8.95;4.15;;;;;;;18.71;44.40;101816.06;5053445;28;20365;-72
2022/03/03 08:28:02;;;;;;;7.72;4.15;;;;;;;18.73;44.85;101806.28;5056830;28;20033;-71
2022/03/03 08:30:29;;;;;;;7.35;4.00;;;;;;;18.76;45.01;101809.53;5055447;28;20088;-71
2022/03/03 08:33:28;;;;;;;7.38;4.18;;;;;;;18.77;45.20;101808.59;5056546;28;20025;-74
2022/03/03 08:35:56;;;;;;;7.70;4.28;;;;;;;18.79;45.08;101819.06;5056093;28;20388;-68
2022/03/03 08:38:32;;;;;;;9.52;3.95;;;;;;;18.82;45.21;101814.41;5055495;28;20033;-68
2022/03/03 08:40:59;;;;;;;9.73;4.10;;;;;;;18.83;45.50;101818.75;5056422;28;20021;-66
2022/03/03 08:43:27;;;;;;;8.30;3.72;;;;;;;18.84;45.56;101816.97;5055833;28;20535;-65
2022/03/03 08:45:56;;;;;;;7.65;3.83;;;;;;;18.87;45.91;101815.91;5055431;28;20033;-65
2022/03/03 08:48:26;;;;;;;7.43;3.85;;;;;;;18.87;45.72;101818.53;5055826;28;20040;-65
2022/03/03 08:50:52;;;;;;;5.38;3.38;;;;;;;18.87;45.93;101814.13;5056265;28;20031;-61
2022/03/03 08:53:23;;;;;;;6.93;3.50;;;;;;;18.87;45.72;101822.03;5055441;28;20029;-64
2022/03/03 08:55:48;;;;;;;8.48;3.60;;;;;;;18.89;45.53;101819.28;5056196;28;20057;-64
2022/03/03 08:58:14;;;;;;;7.70;3.90;;;;;;;18.90;45.82;101816.56;5055288;28;20059;-65
2022/03/03 09:00:41;;;;;;;8.80;5.22;;;;;;;18.84;40.51;101817.81;5055644;28;20037;-67
2022/03/03 09:03:06;;;;;;;9.60;5.30;;;;;;;18.75;42.94;101818.41;5055812;28;20464;-67
2022/03/03 09:05:32;;;;;;;7.22;4.43;;;;;;;18.72;44.05;101813.31;5055070;28;20058;-73
2022/03/03 09:08:00;;;;;;;6.25;4.13;;;;;;;18.73;44.71;101825.59;5055960;28;20465;-65
2022/03/03 09:10:26;;;;;;;8.02;3.35;;;;;;;18.74;44.98;101822.00;5055207;28;20059;-66
2022/03/03 09:12:51;;;;;;;7.45;3.65;;;;;;;18.76;45.34;101814.81;5054802;28;20360;-65
2022/03/03 09:15:17;;;;;;;8.02;3.70;;;;;;;18.79;45.08;101819.06;5055703;28;20025;-66
2022/03/03 09:17:43;;;;;;;10.50;3.80;;;;;;;18.78;45.39;101818.19;5055341;28;20032;-68
2022/03/03 09:20:16;;;;;;;11.65;6.60;;;;;;;18.71;37.16;101816.94;5055000;28;20021;-69
2022/03/03 09:22:43;;;;;;;9.77;5.25;;;;;;;18.63;42.41;101812.19;5055526;28;20430;-65
2022/03/03 09:25:10;;;;;;;9.00;4.45;;;;;;;18.61;42.95;101811.44;5055368;28;20036;-67
2022/03/03 09:27:36;;;;;;;6.65;4.20;;;;;;;18.61;44.35;101807.94;5054335;28;20033;-68
2022/03/03 09:30:03;;;;;;;7.68;3.60;;;;;;;18.61;45.64;101803.53;5055245;28;20472;-68
2022/03/03 09:32:28;;;;;;;8.05;3.97;;;;;;;18.62;45.80;101804.34;5054885;28;20032;-68
2022/03/03 09:34:54;;;;;;;6.40;3.42;;;;;;;18.64;45.86;101805.09;5054694;28;20025;-68
2022/03/03 09:37:19;;;;;;;7.07;3.85;;;;;;;18.65;45.44;101807.63;5054491;28;20025;-69
2022/03/03 09:39:46;;;;;;;8.40;3.70;;;;;;;18.65;44.82;101799.72;5055382;28;20103;-68
2022/03/03 09:42:11;;;;;;;7.75;3.53;;;;;;;18.71;44.85;101806.38;5054596;28;20122;-68
2022/03/03 09:44:37;;;;;;;5.88;3.45;;;;;;;18.73;44.70;101799.19;5054885;28;20170;-68
2022/03/03 09:47:05;;;;;;;6.13;3.83;;;;;;;18.75;44.51;101796.44;5055140;28;20469;-68
2022/03/03 09:49:31;;;;;;;8.60;3.50;;;;;;;18.77;44.78;101798.03;5054529;28;20075;-68
2022/03/03 09:51:56;;;;;;;6.93;3.50;;;;;;;18.77;44.88;101800.69;5055056;28;20029;-68
2022/03/03 09:54:22;;;;;;;8.25;3.72;;;;;;;18.78;44.94;101796.22;5054070;28;20040;-65
2022/03/03 09:56:47;;;;;;;6.70;3.75;;;;;;;18.78;44.73;101791.78;5054927;28;20345;-69
2022/03/03 09:59:13;;;;;;;7.83;3.30;;;;;;;18.79;45.29;101798.75;5054709;28;20024;-70
2022/03/03 10:01:39;;;;;;;7.43;3.60;;;;;;;18.78;45.37;101807.63;5053720;28;20278;-69
2022/03/03 10:04:20;;;;;;;8.82;4.00;;;;;;;18.78;46.15;101802.34;5054921;28;20372;-70
2022/03/03 10:06:49;;;;;;;6.45;3.55;;;;;;;18.77;45.42;101798.03;5054889;28;20031;-69
2022/03/03 10:09:16;;;;;;;9.23;4.45;;;;;;;18.74;43.52;101800.88;5053812;28;20052;-68
2022/03/03 10:12:04;;;;;;;7.72;3.65;;;;;;;18.74;45.11;101800.03;5054300;28;20028;-74
2022/03/03 10:14:32;;;;;;;6.85;3.35;;;;;;;18.75;45.45;101796.44;5054334;28;20075;-72
2022/03/03 10:16:58;;;;;;;6.65;3.72;;;;;;;18.77;45.54;101792.75;5053783;28;20047;-75
2022/03/03 10:19:33;;;;;;;6.03;3.20;;;;;;;18.81;45.55;101793.38;5054465;28;20532;-79
2022/03/03 10:22:04;;;;;;;7.80;3.30;;;;;;;18.81;45.93;101793.38;5054291;28;20029;-73
2022/03/03 10:24:30;;;;;;;7.07;3.47;;;;;;;18.81;46.56;101799.50;5053287;28;20048;-69
2022/03/03 10:27:05;;;;;;;6.85;3.65;;;;;;;18.80;46.32;101794.31;5054478;28;20052;-70
2022/03/03 10:29:31;;;;;;;8.60;6.30;;;;;;;18.61;38.05;101786.81;5053689;28;20033;-71
2022/03/03 10:31:58;;;;;;;11.77;4.90;;;;;;;18.55;43.39;101790.75;5054278;28;20060;-71
2022/03/03 10:34:32;;;;;;;7.40;3.72;;;;;;;18.53;45.34;101782.06;5053965;28;20045;-71
2022/03/03 10:37:03;;;;;;;7.53;3.92;;;;;;;18.55;46.75;101789.88;5053516;28;20143;-70
2022/03/03 10:39:39;;;;;;;7.10;3.40;;;;;;;18.55;46.87;101779.31;5054002;28;20036;-71
2022/03/03 10:42:19;;;;;;;6.97;3.03;;;;;;;18.55;47.62;101776.66;5054166;28;20033;-71
2022/03/03 10:44:45;;;;;;;7.28;3.63;;;;;;;18.54;48.04;101778.47;5053164;28;20032;-71
2022/03/03 10:47:13;;;;;;;6.75;3.60;;;;;;;18.55;47.97;101774.03;5053814;28;20028;-72
2022/03/03 10:49:46;;;;;;;7.47;3.00;;;;;;;18.54;47.27;101777.66;5052441;28;20555;-72
2022/03/03 10:52:28;;;;;;;6.47;4.25;;;;;;;18.55;47.35;101771.41;5053276;28;20029;-72
2022/03/03 10:55:12;;;;;;;7.93;3.10;;;;;;;18.58;46.67;101772.06;5053930;28;20029;-67
2022/03/03 10:57:44;;;;;;;5.28;3.05;;;;;;;18.64;46.75;101769.00;5054285;28;20035;-69
2022/03/03 11:00:23;;;;;;;8.95;3.28;;;;;;;18.77;47.06;101774.28;5053621;28;20440;-67
2022/03/03 11:02:54;;;;;;;7.97;3.28;;;;;;;18.88;47.16;101764.78;5054148;28;20036;-68
2022/03/03 11:05:24;;;;;;;9.43;3.05;;;;;;;18.98;46.94;101766.66;5052634;28;20024;-67
2022/03/03 11:07:50;;;;;;;7.75;3.42;;;;;;;19.00;46.92;101771.84;5053784;28;20499;-71
2022/03/03 11:10:39;;;;;;;6.88;3.10;;;;;;;19.02;46.67;101768.13;5072190;28;20416;-70
2022/03/03 11:13:04;;;;;;;6.60;3.55;;;;;;;19.13;46.39;101763.88;5058050;28;20065;-70
2022/03/03 11:15:29;;;;;;;6.68;3.28;;;;;;;19.20;46.25;101773.91;5054517;28;20028;-68
2022/03/03 11:17:55;;;;;;;7.13;3.45;;;;;;;19.25;46.36;101770.94;5056016;28;20029;-72
2022/03/03 11:20:21;;;;;;;5.68;2.75;;;;;;;19.29;46.07;101764.47;5053029;28;20028;-73
2022/03/03 11:22:51;;;;;;;5.47;3.40;;;;;;;19.31;46.07;101770.50;5054389;28;20495;-68
2022/03/03 11:25:26;;;;;;;7.35;3.60;;;;;;;19.20;44.36;101768.63;5053694;28;20036;-73